createdAt,value
2018-10-16T00:00:59.755Z,13.57
2018-10-16T00:03:28.055Z,14.07
2018-10-16T00:05:56.688Z,13.97
2018-10-16T00:08:25.100Z,11.73
2018-10-16T00:10:53.420Z,14.87
2018-10-16T00:13:21.670Z,13.43
2018-10-16T00:15:50.085Z,12.37
2018-10-16T00:18:18.441Z,15.53
2018-10-16T00:20:46.649Z,13.00
2018-10-16T00:23:14.900Z,18.50
2018-10-16T00:25:43.273Z,13.80
2018-10-16T00:28:11.770Z,14.63
2018-10-16T00:30:40.181Z,14.83
2018-10-16T00:33:08.390Z,15.67
2018-10-16T00:35:36.634Z,13.73
2018-10-16T00:38:05.119Z,13.77
2018-10-16T00:40:33.533Z,12.63
2018-10-16T00:43:01.754Z,16.87
2018-10-16T00:45:30.134Z,15.17
2018-10-16T00:47:58.361Z,13.40
2018-10-16T00:50:26.995Z,16.50
2018-10-16T00:52:55.471Z,16.90
2018-10-16T00:55:23.677Z,15.60
2018-10-16T00:57:51.986Z,14.47
2018-10-16T01:00:20.356Z,13.03
2018-10-16T01:02:48.983Z,14.93
2018-10-16T01:05:17.511Z,11.83
2018-10-16T01:07:45.737Z,13.43
2018-10-16T01:10:14.024Z,13.60
2018-10-16T01:12:42.532Z,16.07
2018-10-16T01:15:11.497Z,16.23
2018-10-16T01:17:40.265Z,12.70
2018-10-16T01:20:11.045Z,15.30
2018-10-16T01:22:39.792Z,15.13
2018-10-16T01:25:09.139Z,17.43
2018-10-16T01:27:37.429Z,16.57
2018-10-16T01:30:05.794Z,18.03
2018-10-16T01:32:34.068Z,18.47
2018-10-16T01:35:02.248Z,19.27
2018-10-16T01:37:30.466Z,14.20
2018-10-16T01:39:58.654Z,14.40
2018-10-16T01:42:27.042Z,12.60
2018-10-16T01:44:55.386Z,13.20
2018-10-16T01:47:23.624Z,11.80
2018-10-16T01:49:51.805Z,14.77
2018-10-16T01:52:20.022Z,12.27
2018-10-16T01:54:48.546Z,16.07
2018-10-16T01:57:16.735Z,15.37
2018-10-16T01:59:45.204Z,15.73
2018-10-16T02:02:13.401Z,18.60
2018-10-16T02:04:41.816Z,14.50
2018-10-16T02:07:10.279Z,14.00
2018-10-16T02:09:38.447Z,13.13
2018-10-16T02:12:06.683Z,18.30
2018-10-16T02:14:35.147Z,18.33
2018-10-16T02:17:03.702Z,13.37
2018-10-16T02:19:31.902Z,18.50
2018-10-16T02:22:00.214Z,15.13
2018-10-16T02:24:28.437Z,14.03
2018-10-16T02:26:56.813Z,13.80
2018-10-16T02:29:25.106Z,13.67
2018-10-16T02:31:53.341Z,15.93
2018-10-16T02:34:21.730Z,19.63
2018-10-16T02:36:50.658Z,15.23
2018-10-16T02:39:19.839Z,13.37
2018-10-16T02:41:48.200Z,12.67
2018-10-16T02:44:16.383Z,15.83
2018-10-16T02:46:44.554Z,18.33
2018-10-16T02:49:13.030Z,14.20
2018-10-16T02:51:42.209Z,16.10
2018-10-16T02:54:10.615Z,17.67
2018-10-16T02:56:38.842Z,14.50
2018-10-16T02:59:07.195Z,16.50
2018-10-16T03:01:35.452Z,16.83
2018-10-16T03:04:03.691Z,16.47
2018-10-16T03:06:31.882Z,14.83
2018-10-16T03:09:00.102Z,14.23
2018-10-16T03:11:28.334Z,14.77
2018-10-16T03:13:56.665Z,15.17
2018-10-16T03:16:24.850Z,16.50
2018-10-16T03:18:53.056Z,14.77
2018-10-16T03:21:21.242Z,16.27
2018-10-16T03:23:49.603Z,16.80
2018-10-16T03:26:17.975Z,17.63
2018-10-16T03:28:46.193Z,15.97
2018-10-16T03:31:14.387Z,16.00
2018-10-16T03:33:42.701Z,15.87
2018-10-16T03:36:11.063Z,13.63
2018-10-16T03:38:39.240Z,15.10
2018-10-16T03:41:07.414Z,16.50
2018-10-16T03:43:36.854Z,14.23
2018-10-16T03:46:05.402Z,15.17
2018-10-16T03:48:33.695Z,15.47
2018-10-16T03:51:01.875Z,13.07
2018-10-16T03:53:30.062Z,15.90
2018-10-16T03:55:58.273Z,17.70
2018-10-16T03:58:26.706Z,15.87
2018-10-16T04:00:55.721Z,18.07
2018-10-16T04:03:23.881Z,14.70
2018-10-16T04:05:52.103Z,16.83
2018-10-16T04:08:20.396Z,16.60
2018-10-16T04:10:48.710Z,18.70
2018-10-16T04:13:17.218Z,15.37
2018-10-16T04:15:45.482Z,20.73
2018-10-16T04:18:13.678Z,17.57
2018-10-16T04:20:41.894Z,19.07
2018-10-16T04:23:10.093Z,18.37
2018-10-16T04:25:38.494Z,16.77
2018-10-16T04:28:06.680Z,15.63
2018-10-16T04:30:35.330Z,20.53
2018-10-16T04:33:03.904Z,17.10
2018-10-16T04:35:32.152Z,18.60
2018-10-16T04:38:00.450Z,21.73
2018-10-16T04:40:28.768Z,17.20
2018-10-16T04:42:57.915Z,17.83
2018-10-16T04:45:26.621Z,18.03
2018-10-16T04:47:54.835Z,19.00
2018-10-16T04:50:23.115Z,17.23
2018-10-16T04:52:51.283Z,16.13
2018-10-16T04:55:20.328Z,16.43
2018-10-16T04:57:49.051Z,21.30
2018-10-16T05:00:17.291Z,17.67
2018-10-16T05:02:45.498Z,14.80
2018-10-16T05:05:18.150Z,20.97
2018-10-16T05:07:46.366Z,23.73
2018-10-16T05:10:14.594Z,18.23
2018-10-16T05:12:42.770Z,19.60
2018-10-16T05:15:15.018Z,20.00
2018-10-16T05:17:43.192Z,21.03
2018-10-16T05:20:11.579Z,19.77
2018-10-16T05:22:39.843Z,20.27
2018-10-16T05:25:08.021Z,21.33
2018-10-16T05:27:36.258Z,19.07
2018-10-16T05:30:04.838Z,20.47
2018-10-16T05:32:33.222Z,23.07
2018-10-16T05:35:25.328Z,17.00
2018-10-16T05:37:55.437Z,17.10
2018-10-16T05:40:23.609Z,18.73
2018-10-16T05:42:52.274Z,19.60
2018-10-16T05:45:22.812Z,18.77
2018-10-16T05:47:51.030Z,19.17
2018-10-16T05:50:20.272Z,18.80
2018-10-16T05:52:48.745Z,16.43
2018-10-16T05:55:16.905Z,18.47
2018-10-16T05:57:45.125Z,20.40
2018-10-16T06:00:24.892Z,14.90
2018-10-16T06:02:53.069Z,22.90
2018-10-16T06:05:21.280Z,18.30
2018-10-16T06:07:49.663Z,27.20
2018-10-16T06:10:18.046Z,26.97
2018-10-16T06:12:46.285Z,29.30
2018-10-16T06:15:14.486Z,25.47
2018-10-16T06:17:42.839Z,20.83
2018-10-16T06:20:13.015Z,22.67
2018-10-16T06:22:42.318Z,20.03
2018-10-16T06:25:10.923Z,24.60
2018-10-16T06:27:40.435Z,25.03
2018-10-16T06:30:09.009Z,24.47
2018-10-16T06:32:37.831Z,17.63
2018-10-16T06:35:06.958Z,22.13
2018-10-16T06:37:35.246Z,21.60
2018-10-16T06:40:03.706Z,21.67
2018-10-16T06:42:31.950Z,21.20
2018-10-16T06:45:00.558Z,23.07
2018-10-16T06:47:28.776Z,21.43
2018-10-16T06:49:57.188Z,25.63
2018-10-16T06:52:25.586Z,23.17
2018-10-16T06:54:53.904Z,20.27
2018-10-16T06:57:22.826Z,22.47
2018-10-16T06:59:51.040Z,14.70
2018-10-16T07:02:19.450Z,19.83
2018-10-16T07:04:47.848Z,21.07
2018-10-16T07:07:16.169Z,17.60
2018-10-16T07:09:44.222Z,21.63
2018-10-16T07:12:13.077Z,19.07
2018-10-16T07:14:41.434Z,16.63
2018-10-16T07:17:10.355Z,14.87
2018-10-16T07:19:38.615Z,15.53
2018-10-16T07:22:09.373Z,16.07
2018-10-16T07:24:37.632Z,15.40
2018-10-16T07:27:05.978Z,17.37
2018-10-16T07:29:34.703Z,16.80
2018-10-16T07:32:03.712Z,16.90
2018-10-16T07:34:31.944Z,17.40
2018-10-16T07:37:00.122Z,15.63
2018-10-16T07:39:28.338Z,13.87
2018-10-16T07:41:56.692Z,13.87
2018-10-16T07:44:24.888Z,14.03
2018-10-16T07:46:53.115Z,13.23
2018-10-16T07:49:21.518Z,13.80
2018-10-16T07:51:49.791Z,14.83
2018-10-16T07:54:18.178Z,20.83
2018-10-16T07:56:46.530Z,16.10
2018-10-16T07:59:14.870Z,15.30
2018-10-16T08:01:43.078Z,15.03
2018-10-16T08:04:11.785Z,26.30
2018-10-16T08:06:40.046Z,12.57
2018-10-16T08:09:10.633Z,14.25
2018-10-16T08:11:43.083Z,15.90
2018-10-16T08:14:11.458Z,16.27
2018-10-16T08:16:39.717Z,14.63
2018-10-16T08:19:08.228Z,18.55
2018-10-16T08:21:36.495Z,15.45
2018-10-16T08:24:05.254Z,14.80
2018-10-16T08:26:33.532Z,18.65
2018-10-16T08:29:01.872Z,14.30
2018-10-16T08:31:30.174Z,18.82
2018-10-16T08:33:58.599Z,12.05
2018-10-16T08:36:27.107Z,14.75
2018-10-16T08:39:00.746Z,16.32
2018-10-16T08:43:50.292Z,14.73
2018-10-16T08:46:29.965Z,14.78
2018-10-16T08:49:10.162Z,15.70
2018-10-16T08:51:43.790Z,12.05
2018-10-16T08:54:12.105Z,11.93
2018-10-16T08:56:40.479Z,11.05
2018-10-16T08:59:08.885Z,14.00
2018-10-16T09:01:37.068Z,13.70
2018-10-16T09:04:05.537Z,10.08
2018-10-16T09:06:33.918Z,10.58
2018-10-16T09:09:02.670Z,13.83
2018-10-16T09:11:30.859Z,9.38
2018-10-16T09:13:59.234Z,10.45
2018-10-16T09:16:27.743Z,12.03
2018-10-16T09:18:55.998Z,14.07
2018-10-16T09:21:24.215Z,13.20
2018-10-16T09:23:52.419Z,11.68
2018-10-16T09:26:20.603Z,11.03
2018-10-16T09:28:48.842Z,12.03
2018-10-16T09:31:17.523Z,10.80
2018-10-16T09:33:45.733Z,16.82
2018-10-16T09:36:13.922Z,12.15
2018-10-16T09:38:42.426Z,11.38
2018-10-16T09:41:11.526Z,14.23
2018-10-16T09:43:39.723Z,13.50
2018-10-16T09:46:07.935Z,10.35
2018-10-16T09:48:36.739Z,11.90
2018-10-16T09:51:05.063Z,11.68
2018-10-16T09:53:33.687Z,12.70
2018-10-16T09:56:01.882Z,13.78
2018-10-16T09:58:30.101Z,12.15
2018-10-16T10:01:04.172Z,13.70
2018-10-16T10:03:32.386Z,15.40
2018-10-16T10:06:00.635Z,14.23
2018-10-16T10:08:28.870Z,14.05
2018-10-16T10:10:57.324Z,12.78
2018-10-16T10:13:25.790Z,13.43
2018-10-16T10:15:54.016Z,12.65
2018-10-16T10:18:22.193Z,12.28
2018-10-16T10:20:50.386Z,11.48
2018-10-16T10:23:18.797Z,12.40
2018-10-16T10:25:46.978Z,13.53
2018-10-16T10:28:15.177Z,15.38
2018-10-16T10:30:43.618Z,14.18
2018-10-16T10:33:12.370Z,13.22
2018-10-16T10:35:41.496Z,16.42
2018-10-16T10:38:09.662Z,12.53
2018-10-16T10:40:38.465Z,13.65
2018-10-16T10:43:06.757Z,15.00
2018-10-16T10:45:35.474Z,11.50
2018-10-16T10:48:03.904Z,12.23
2018-10-16T10:50:32.201Z,13.18
2018-10-16T10:53:00.434Z,16.57
2018-10-16T10:55:29.526Z,11.22
2018-10-16T10:57:57.956Z,13.28
2018-10-16T11:00:26.245Z,12.10
2018-10-16T11:02:54.846Z,12.75
2018-10-16T11:05:22.992Z,10.15
2018-10-16T11:07:51.248Z,11.28
2018-10-16T11:10:19.631Z,12.03
2018-10-16T11:12:47.894Z,14.23
2018-10-16T11:15:16.347Z,10.63
2018-10-16T11:17:44.469Z,13.25
2018-10-16T11:20:13.746Z,18.30
2018-10-16T11:22:42.476Z,11.05
2018-10-16T11:25:11.436Z,13.75
2018-10-16T11:27:39.978Z,10.10
2018-10-16T11:30:13.454Z,11.33
2018-10-16T11:32:42.262Z,10.90
2018-10-16T11:35:11.881Z,10.20
2018-10-16T11:37:40.802Z,10.95
2018-10-16T11:40:09.808Z,10.58
2018-10-16T11:42:38.270Z,11.45
2018-10-16T11:45:06.915Z,8.43
2018-10-16T11:47:36.106Z,9.55
2018-10-16T11:50:05.070Z,9.43
2018-10-16T11:52:34.640Z,10.00
2018-10-16T11:55:02.888Z,10.43
2018-10-16T11:57:31.272Z,10.85
2018-10-16T11:59:59.527Z,10.40
2018-10-16T12:02:27.885Z,9.70
2018-10-16T12:04:56.243Z,16.70
2018-10-16T12:07:24.453Z,8.73
2018-10-16T12:09:53.204Z,11.48
2018-10-16T12:12:23.135Z,11.12
2018-10-16T12:14:52.434Z,12.03
2018-10-16T12:17:31.577Z,13.58
2018-10-16T12:20:05.131Z,8.48
2018-10-16T12:22:33.560Z,10.95
2018-10-16T12:25:01.868Z,9.70
2018-10-16T12:27:29.978Z,12.37
2018-10-16T12:29:59.063Z,13.13
2018-10-16T12:32:27.391Z,10.03
2018-10-16T12:34:55.637Z,8.95
2018-10-16T12:37:23.925Z,6.58
2018-10-16T12:39:52.176Z,10.88
2018-10-16T12:42:21.115Z,15.38
2018-10-16T12:44:49.525Z,10.63
2018-10-16T12:47:17.754Z,10.32
2018-10-16T12:49:45.973Z,9.58
2018-10-16T12:52:14.170Z,9.20
2018-10-16T12:54:43.324Z,11.70
2018-10-16T12:57:11.573Z,12.82
2018-10-16T12:59:39.731Z,10.08
2018-10-16T13:02:07.961Z,10.13
2018-10-16T13:04:36.120Z,7.42
2018-10-16T13:07:08.534Z,8.38
2018-10-16T13:09:37.078Z,11.00
2018-10-16T13:12:05.338Z,9.25
2018-10-16T13:14:33.627Z,10.65
2018-10-16T13:17:01.990Z,13.48
2018-10-16T13:19:30.179Z,13.48
2018-10-16T13:21:58.475Z,11.08
2018-10-16T13:24:27.042Z,12.30
2018-10-16T13:26:55.214Z,13.00
2018-10-16T13:29:23.520Z,8.98
2018-10-16T13:31:51.754Z,8.10
2018-10-16T13:34:19.998Z,9.90
2018-10-16T13:36:48.227Z,11.12
2018-10-16T13:39:16.398Z,8.53
2018-10-16T13:41:44.702Z,9.85
2018-10-16T13:44:13.958Z,8.68
2018-10-16T13:46:42.203Z,12.25
2018-10-16T13:49:10.399Z,9.67
2018-10-16T13:51:38.567Z,10.48
2018-10-16T13:54:06.753Z,11.57
2018-10-16T13:56:35.629Z,14.80
2018-10-16T13:59:04.201Z,11.40
2018-10-16T14:01:32.343Z,10.27
2018-10-16T14:04:00.621Z,10.23
2018-10-16T14:06:28.722Z,13.50
2018-10-16T14:08:56.906Z,9.87
2018-10-16T14:11:25.368Z,8.40
2018-10-16T14:13:53.544Z,14.13
2018-10-16T14:16:21.685Z,8.53
2018-10-16T14:18:50.944Z,12.20
2018-10-16T14:21:19.602Z,10.87
2018-10-16T14:23:48.974Z,9.83
2018-10-16T14:26:17.163Z,13.70
2018-10-16T14:28:45.271Z,13.07
2018-10-16T14:31:13.465Z,10.93
2018-10-16T14:33:41.795Z,8.63
2018-10-16T14:36:09.899Z,9.87
2018-10-16T14:38:38.071Z,11.23
2018-10-16T14:41:06.382Z,8.23
2018-10-16T14:43:35.106Z,7.80
2018-10-16T14:46:03.643Z,8.03
2018-10-16T14:48:31.768Z,10.80
2018-10-16T14:50:59.948Z,9.50
2018-10-16T14:53:28.102Z,8.57
2018-10-16T14:55:57.207Z,8.73
2018-10-16T14:58:25.487Z,10.60
2018-10-16T15:00:53.760Z,8.47
2018-10-16T15:03:22.015Z,12.03
2018-10-16T15:05:50.922Z,12.40
2018-10-16T15:08:19.361Z,9.60
2018-10-16T15:10:47.632Z,12.87
2018-10-16T15:13:15.775Z,8.53
2018-10-16T15:15:43.947Z,12.23
2018-10-16T15:18:12.402Z,12.07
2018-10-16T15:20:40.617Z,11.23
2018-10-16T15:23:08.900Z,14.80
2018-10-16T15:25:37.137Z,9.40
2018-10-16T15:28:05.841Z,13.67
2018-10-16T15:30:35.070Z,9.10
2018-10-16T15:33:03.267Z,12.70
2018-10-16T15:35:31.518Z,10.87
2018-10-16T15:37:59.713Z,10.17
2018-10-16T15:40:28.503Z,10.40
2018-10-16T15:42:56.932Z,10.30
2018-10-16T15:45:25.978Z,12.07
2018-10-16T15:47:54.177Z,7.83
2018-10-16T15:50:22.423Z,10.47
2018-10-16T15:52:50.798Z,7.77
2018-10-16T15:55:19.142Z,6.97
2018-10-16T15:57:47.404Z,8.20
2018-10-16T16:00:16.744Z,7.50
2018-10-16T16:02:44.869Z,8.43
2018-10-16T16:05:13.127Z,11.07
2018-10-16T16:07:41.400Z,8.80
2018-10-16T16:10:11.649Z,9.47
2018-10-16T16:12:39.813Z,8.53
2018-10-16T16:15:08.790Z,8.20
2018-10-16T16:17:37.454Z,8.93
2018-10-16T16:20:06.933Z,8.83
2018-10-16T16:22:35.182Z,11.83
2018-10-16T16:25:03.371Z,6.20
2018-10-16T16:27:31.774Z,11.30
2018-10-16T16:30:00.101Z,9.17
2018-10-16T16:32:28.323Z,8.67
2018-10-16T16:34:56.854Z,8.90
2018-10-16T16:37:25.054Z,8.87
2018-10-16T16:39:53.213Z,12.60
2018-10-16T16:42:21.362Z,12.43
2018-10-16T16:44:50.170Z,10.80
2018-10-16T16:47:18.423Z,10.17
2018-10-16T16:49:46.641Z,7.93
2018-10-16T16:52:14.815Z,20.80
2018-10-16T16:54:43.385Z,7.97
2018-10-16T16:57:12.390Z,6.87
2018-10-16T16:59:41.362Z,13.93
2018-10-16T17:02:09.577Z,9.53
2018-10-16T17:04:37.749Z,7.77
2018-10-16T17:07:06.458Z,7.83
2018-10-16T17:09:35.001Z,10.93
2018-10-16T17:12:03.390Z,12.33
2018-10-16T17:14:31.544Z,9.13
2018-10-16T17:16:59.886Z,8.37
2018-10-16T17:19:28.266Z,9.00
2018-10-16T17:21:56.660Z,8.57
2018-10-16T17:24:24.802Z,9.93
2018-10-16T17:26:53.224Z,10.30
2018-10-16T17:29:21.464Z,10.67
2018-10-16T17:31:49.770Z,8.57
2018-10-16T17:34:18.357Z,10.27
2018-10-16T17:36:46.538Z,10.20
2018-10-16T17:39:14.790Z,10.90
2018-10-16T17:41:42.982Z,11.83
2018-10-16T17:44:11.871Z,8.87
2018-10-16T17:46:40.225Z,8.33
2018-10-16T17:49:08.391Z,11.03
2018-10-16T17:51:36.704Z,11.07
2018-10-16T17:54:04.988Z,8.30
2018-10-16T17:56:33.162Z,9.67
2018-10-16T17:59:01.719Z,14.70
2018-10-16T18:01:29.862Z,7.40
2018-10-16T18:03:58.229Z,7.90
2018-10-16T18:06:26.414Z,10.33
2018-10-16T18:08:54.696Z,8.33
2018-10-16T18:11:22.825Z,9.30
2018-10-16T18:13:51.180Z,10.63
2018-10-16T18:16:19.881Z,9.80
2018-10-16T18:18:48.144Z,11.27
2018-10-16T18:21:16.396Z,12.33
2018-10-16T18:23:44.698Z,8.23
2018-10-16T18:26:13.124Z,10.97
2018-10-16T18:28:41.530Z,9.53
2018-10-16T18:31:09.754Z,12.47
2018-10-16T18:33:38.102Z,12.50
2018-10-16T18:36:06.282Z,12.27
2018-10-16T18:38:34.583Z,11.83
2018-10-16T18:41:02.914Z,9.53
2018-10-16T18:43:31.119Z,8.07
2018-10-16T18:45:59.403Z,17.20
2018-10-16T18:48:27.867Z,12.40
2018-10-16T18:50:56.978Z,9.83
2018-10-16T18:53:25.329Z,14.60
2018-10-16T18:55:53.529Z,10.27
2018-10-16T18:58:21.706Z,9.30
2018-10-16T19:00:50.423Z,10.90
2018-10-16T19:03:19.110Z,9.70
2018-10-16T19:05:47.355Z,9.30
2018-10-16T19:08:15.882Z,8.70
2018-10-16T19:10:44.100Z,10.23
2018-10-16T19:13:12.514Z,13.17
2018-10-16T19:15:40.740Z,12.00
2018-10-16T19:18:08.959Z,9.73
2018-10-16T19:20:37.126Z,10.37
2018-10-16T19:23:05.763Z,11.77
2018-10-16T19:25:33.978Z,12.30
2018-10-16T19:28:02.325Z,13.20
2018-10-16T19:30:30.519Z,12.20
2018-10-16T19:32:58.836Z,12.40
2018-10-16T19:35:27.156Z,11.50
2018-10-16T19:38:15.976Z,12.60
2018-10-16T19:41:09.045Z,11.57
2018-10-16T19:43:38.289Z,9.60
2018-10-16T19:46:06.549Z,12.07
2018-10-16T19:48:35.699Z,11.47
2018-10-16T19:51:04.018Z,13.70
2018-10-16T19:53:32.186Z,12.50
2018-10-16T19:56:00.396Z,9.27
2018-10-16T19:58:28.887Z,10.27
2018-10-16T20:00:57.159Z,11.33
2018-10-16T20:03:25.529Z,10.03
2018-10-16T20:05:53.754Z,12.53
2018-10-16T20:08:21.911Z,11.00
2018-10-16T20:10:50.764Z,14.63
2018-10-16T20:13:18.994Z,12.90
2018-10-16T20:15:47.198Z,13.20
2018-10-16T20:18:15.482Z,13.83
2018-10-16T20:20:43.682Z,12.07
2018-10-16T20:23:11.914Z,12.70
2018-10-16T20:25:40.099Z,13.17
2018-10-16T20:28:08.283Z,11.63
2018-10-16T20:30:36.446Z,10.20
2018-10-16T20:33:04.781Z,12.27
2018-10-16T20:35:33.016Z,9.13
2018-10-16T20:38:01.243Z,10.90
2018-10-16T20:40:29.411Z,11.03
2018-10-16T20:42:57.868Z,13.07
2018-10-16T20:45:26.122Z,12.13
2018-10-16T20:47:54.321Z,11.57
2018-10-16T20:50:22.482Z,13.37
2018-10-16T20:52:50.746Z,10.80
2018-10-16T20:55:18.912Z,12.90
2018-10-16T20:57:47.186Z,13.30
2018-10-16T21:00:15.459Z,12.57
2018-10-16T21:02:43.669Z,13.10
2018-10-16T21:05:12.041Z,14.80
2018-10-16T21:07:40.326Z,10.73
2018-10-16T21:10:08.630Z,14.03
2018-10-16T21:12:36.854Z,12.60
2018-10-16T21:15:05.826Z,11.43
2018-10-16T21:17:34.011Z,15.57
2018-10-16T21:20:02.183Z,12.43
2018-10-16T21:22:30.354Z,10.07
2018-10-16T21:24:58.706Z,11.00
2018-10-16T21:27:27.515Z,15.27
2018-10-16T21:29:55.934Z,14.50
2018-10-16T21:32:24.122Z,13.40
2018-10-16T21:34:52.294Z,15.47
2018-10-16T21:37:20.505Z,16.97
2018-10-16T21:39:48.843Z,14.17
2018-10-16T21:42:17.010Z,13.93
2018-10-16T21:44:45.181Z,13.93
2018-10-16T21:47:13.596Z,15.73
2018-10-16T21:49:41.761Z,14.10
2018-10-16T21:52:09.986Z,14.47
2018-10-16T21:54:38.323Z,15.70
2018-10-16T21:57:06.554Z,22.03
2018-10-16T21:59:35.535Z,14.73
2018-10-16T22:02:09.202Z,15.27
2018-10-16T22:04:40.153Z,15.97
2018-10-16T22:07:08.710Z,16.80
2018-10-16T22:09:36.813Z,13.53
2018-10-16T22:12:05.751Z,16.20
2018-10-16T22:14:33.951Z,15.33
2018-10-16T22:17:02.171Z,16.00
2018-10-16T22:19:30.357Z,18.23
2018-10-16T22:21:58.533Z,19.53
2018-10-16T22:24:26.800Z,16.40
2018-10-16T22:26:54.982Z,17.77
2018-10-16T22:29:23.164Z,16.67
2018-10-16T22:31:51.568Z,14.83
2018-10-16T22:34:20.391Z,14.70
2018-10-16T22:36:49.597Z,18.90
2018-10-16T22:39:17.753Z,15.50
2018-10-16T22:41:45.981Z,16.67
2018-10-16T22:44:14.238Z,15.43
2018-10-16T22:46:42.654Z,14.40
2018-10-16T22:49:10.869Z,14.90
2018-10-16T22:51:39.129Z,13.57
2018-10-16T22:54:07.330Z,12.67
2018-10-16T22:56:35.564Z,15.50
2018-10-16T22:59:04.125Z,15.50
2018-10-16T23:01:32.450Z,17.20
2018-10-16T23:04:00.634Z,16.70
2018-10-16T23:06:28.832Z,15.03
2018-10-16T23:08:57.130Z,17.07
2018-10-16T23:11:25.312Z,13.23
2018-10-16T23:13:54.042Z,14.60
2018-10-16T23:16:22.235Z,19.20
2018-10-16T23:18:50.776Z,17.57
2018-10-16T23:21:18.993Z,17.53
2018-10-16T23:23:47.297Z,16.00
2018-10-16T23:26:16.938Z,15.10
2018-10-16T23:28:45.097Z,16.77
2018-10-16T23:31:13.327Z,18.47
2018-10-16T23:33:41.510Z,15.47
2018-10-16T23:36:09.698Z,21.00
2018-10-16T23:38:37.856Z,14.50
2018-10-16T23:41:06.372Z,15.20
2018-10-16T23:43:34.695Z,15.27
2018-10-16T23:46:02.884Z,15.73
2018-10-16T23:48:31.104Z,18.03
2018-10-16T23:50:59.358Z,17.63
2018-10-16T23:53:28.436Z,13.43
2018-10-16T23:55:57.015Z,14.37
2018-10-16T23:58:25.240Z,16.17
